THY47B LTFM-KATL
Flight info
| Callsign | THY47B |
|---|---|
| Flight time | N/A |
| Altitude | 36000 |
| Route | IBLAX P727 BGS L622 KOMAN DCT OBARA DCT ABULI DCT BABKO DCT SUDOL DCT ROVEK DCT BINKA DCT PEROM DCT NIKDA DCT VAXIT/N0484F380 DCT ARTEX DCT LAMRO DCT FORTY DCT BALIX/M084F380 DCT 60N020W 60N030W 59N040W 58N050W DCT CUDDY/N0493F380 N806C NOWAA/N0489F400 DCT YVO Q820 DERLO DCT WWSHR DCT APE DCT KTRYN ONDRE1 |
| Aircraft | B789/H-SDE1E2E3FGHIJ2J3J4J5M1RWXY/LB1D1 |
Departure
| Time | 2026-05-08 04:02 |
|---|---|
| Airport | İstanbul Airport (LTFM) |
Arrival
| Time | N/A |
|---|---|
| Airport | Hartsfield Jackson Atlanta International Airport (KATL) |
| Time | Latitude | Longitude | Altitude | Speed | Heading |
|---|---|---|---|---|---|
| 2026-05-08 03:40 | 41.26730 | 28.74360 | 316 ft | 0 kts | 269° |
| 2026-05-08 03:51 | 41.26730 | 28.74380 | 316 ft | 2 kts | 271° |
| 2026-05-08 03:51 | 41.26729 | 28.74402 | 315 ft | 2 kts | 275° |
| 2026-05-08 03:51 | 41.26727 | 28.74424 | 316 ft | 2 kts | 281° |
| 2026-05-08 03:51 | 41.26722 | 28.74445 | 317 ft | 2 kts | 296° |
| 2026-05-08 03:52 | 41.26711 | 28.74461 | 315 ft | 2 kts | 338° |
| 2026-05-08 03:52 | 41.26702 | 28.74464 | 316 ft | 0 kts | 357° |
| 2026-05-08 03:52 | 41.26701 | 28.74464 | 316 ft | 0 kts | 357° |
| 2026-05-08 03:54 | 41.26720 | 28.74463 | 318 ft | 8 kts | 358° |
| 2026-05-08 03:54 | 41.26828 | 28.74461 | 318 ft | 22 kts | 359° |
| 2026-05-08 03:54 | 41.26985 | 28.74459 | 317 ft | 24 kts | 359° |
| 2026-05-08 03:55 | 41.27128 | 28.74431 | 314 ft | 17 kts | 313° |
| 2026-05-08 03:55 | 41.27142 | 28.74263 | 314 ft | 23 kts | 270° |
| 2026-05-08 03:55 | 41.27139 | 28.74023 | 314 ft | 27 kts | 269° |
| 2026-05-08 03:55 | 41.27135 | 28.73781 | 316 ft | 26 kts | 268° |
| 2026-05-08 03:56 | 41.27132 | 28.73544 | 317 ft | 26 kts | 270° |
| 2026-05-08 03:56 | 41.27131 | 28.73301 | 317 ft | 27 kts | 269° |
| 2026-05-08 03:56 | 41.27149 | 28.73117 | 311 ft | 14 kts | 322° |
| 2026-05-08 03:56 | 41.27279 | 28.73098 | 311 ft | 26 kts | 359° |
| 2026-05-08 03:57 | 41.27484 | 28.73094 | 306 ft | 30 kts | 359° |
| 2026-05-08 03:57 | 41.27702 | 28.73090 | 301 ft | 32 kts | 358° |
| 2026-05-08 03:57 | 41.27902 | 28.72971 | 293 ft | 32 kts | 349° |
| 2026-05-08 03:57 | 41.28126 | 28.72965 | 280 ft | 33 kts | 359° |
| 2026-05-08 03:58 | 41.28327 | 28.72962 | 274 ft | 28 kts | 359° |
| 2026-05-08 03:58 | 41.28526 | 28.72959 | 270 ft | 29 kts | 359° |
| 2026-05-08 03:58 | 41.28726 | 28.72954 | 268 ft | 28 kts | 359° |
| 2026-05-08 03:58 | 41.28923 | 28.72950 | 261 ft | 29 kts | 359° |
| 2026-05-08 03:59 | 41.29117 | 28.72946 | 247 ft | 26 kts | 359° |
| 2026-05-08 03:59 | 41.29316 | 28.72942 | 237 ft | 31 kts | 359° |
| 2026-05-08 03:59 | 41.29522 | 28.72937 | 229 ft | 28 kts | 359° |
| 2026-05-08 03:59 | 41.29714 | 28.72933 | 227 ft | 27 kts | 359° |
| 2026-05-08 04:00 | 41.29862 | 28.72924 | 226 ft | 16 kts | 339° |
| 2026-05-08 04:00 | 41.29886 | 28.72826 | 226 ft | 13 kts | 268° |
| 2026-05-08 04:00 | 41.29881 | 28.72674 | 226 ft | 18 kts | 267° |
| 2026-05-08 04:00 | 41.29879 | 28.72511 | 227 ft | 16 kts | 269° |
| 2026-05-08 04:01 | 41.29839 | 28.72455 | 226 ft | 7 kts | 187° |
| 2026-05-08 04:01 | 41.29739 | 28.72455 | 226 ft | 30 kts | 179° |
| 2026-05-08 04:01 | 41.29345 | 28.72462 | 241 ft | 83 kts | 179° |
| 2026-05-08 04:01 | 41.28603 | 28.72477 | 261 ft | 130 kts | 179° |
| 2026-05-08 04:02 | 41.27560 | 28.72498 | 299 ft | 169 kts | 180° |
| 2026-05-08 04:02 | 41.26382 | 28.72553 | 746 ft | 162 kts | 179° |
| 2026-05-08 04:02 | 41.25240 | 28.72626 | 1151 ft | 173 kts | 179° |
| 2026-05-08 04:02 | 41.23978 | 28.72676 | 1720 ft | 183 kts | 182° |
| 2026-05-08 04:03 | 41.22634 | 28.72696 | 2151 ft | 208 kts | 180° |
| 2026-05-08 04:03 | 41.19630 | 28.72106 | 3433 ft | 226 kts | 213° |
| 2026-05-08 04:03 | 41.18548 | 28.70618 | 4243 ft | 228 kts | 241° |
| 2026-05-08 04:04 | 41.18126 | 28.68602 | 5119 ft | 230 kts | 265° |
| 2026-05-08 04:04 | 41.18098 | 28.66468 | 5917 ft | 233 kts | 267° |
| 2026-05-08 04:04 | 41.18078 | 28.64295 | 6679 ft | 237 kts | 268° |
| 2026-05-08 04:04 | 41.18057 | 28.62093 | 7400 ft | 240 kts | 268° |
| 2026-05-08 04:05 | 41.18060 | 28.59855 | 8103 ft | 244 kts | 275° |
| 2026-05-08 04:05 | 41.18642 | 28.57744 | 8809 ft | 247 kts | 301° |
| 2026-05-08 04:05 | 41.19864 | 28.56131 | 9535 ft | 253 kts | 326° |
| 2026-05-08 04:05 | 41.21587 | 28.55344 | 9803 ft | 279 kts | 353° |
| 2026-05-08 04:06 | 41.23580 | 28.55300 | 10254 ft | 295 kts | 356° |
| 2026-05-08 04:06 | 41.25729 | 28.55267 | 10364 ft | 323 kts | 356° |
| 2026-05-08 04:06 | 41.28042 | 28.55224 | 10852 ft | 335 kts | 356° |
| 2026-05-08 04:06 | 41.30380 | 28.55180 | 11687 ft | 339 kts | 358° |
| 2026-05-08 04:07 | 41.32750 | 28.55521 | 12350 ft | 346 kts | 6° |
| 2026-05-08 04:07 | 41.35148 | 28.55873 | 13119 ft | 348 kts | 2° |
| 2026-05-08 04:07 | 41.37577 | 28.56177 | 13884 ft | 353 kts | 3° |
| 2026-05-08 04:07 | 41.40025 | 28.56542 | 14570 ft | 357 kts | 4° |
| 2026-05-08 04:08 | 41.42502 | 28.56897 | 15245 ft | 358 kts | 358° |
| 2026-05-08 04:08 | 41.44949 | 28.56411 | 15881 ft | 356 kts | 340° |
| 2026-05-08 04:08 | 41.47242 | 28.55155 | 16478 ft | 359 kts | 335° |
| 2026-05-08 04:08 | 41.49544 | 28.53843 | 17167 ft | 362 kts | 335° |
| 2026-05-08 04:09 | 41.51881 | 28.52502 | 17770 ft | 367 kts | 335° |
| 2026-05-08 04:09 | 41.54235 | 28.51149 | 18420 ft | 371 kts | 335° |
| 2026-05-08 04:09 | 41.56613 | 28.49784 | 18970 ft | 374 kts | 335° |
| 2026-05-08 04:09 | 41.59017 | 28.48404 | 19541 ft | 377 kts | 335° |
| 2026-05-08 04:10 | 41.61433 | 28.47014 | 20099 ft | 380 kts | 335° |
| 2026-05-08 04:10 | 41.63044 | 28.46086 | 20464 ft | 381 kts | 335° |
| 2026-05-08 04:10 | 41.66318 | 28.44200 | 21176 ft | 385 kts | 335° |
| 2026-05-08 04:10 | 41.67952 | 28.43258 | 21526 ft | 387 kts | 335° |
| 2026-05-08 04:11 | 41.70434 | 28.41826 | 22037 ft | 390 kts | 335° |
| 2026-05-08 04:11 | 41.72935 | 28.40381 | 22543 ft | 393 kts | 335° |
| 2026-05-08 04:11 | 41.76284 | 28.38446 | 23141 ft | 398 kts | 335° |
| 2026-05-08 04:11 | 41.78900 | 28.37176 | 23579 ft | 402 kts | 341° |
| 2026-05-08 04:12 | 41.80702 | 28.36396 | 23838 ft | 404 kts | 340° |
| 2026-05-08 04:12 | 41.83373 | 28.35202 | 24272 ft | 405 kts | 339° |
| 2026-05-08 04:12 | 41.86051 | 28.34005 | 24688 ft | 406 kts | 340° |
| 2026-05-08 04:12 | 41.88742 | 28.32819 | 25097 ft | 408 kts | 340° |
| 2026-05-08 04:13 | 41.91409 | 28.31646 | 25480 ft | 409 kts | 340° |
| 2026-05-08 04:13 | 41.94152 | 28.30421 | 25887 ft | 410 kts | 337° |
| 2026-05-08 04:13 | 41.96680 | 28.28767 | 26171 ft | 411 kts | 326° |
| 2026-05-08 04:13 | 41.98977 | 28.26411 | 26547 ft | 411 kts | 315° |
| 2026-05-08 04:14 | 42.00833 | 28.23566 | 26895 ft | 411 kts | 304° |
| 2026-05-08 04:14 | 42.02476 | 28.20340 | 27205 ft | 414 kts | 304° |
| 2026-05-08 04:14 | 42.04076 | 28.17183 | 27568 ft | 415 kts | 304° |
| 2026-05-08 04:14 | 42.05694 | 28.13961 | 27913 ft | 417 kts | 303° |
| 2026-05-08 04:15 | 42.07322 | 28.10719 | 28253 ft | 418 kts | 304° |
| 2026-05-08 04:15 | 42.08958 | 28.07471 | 28586 ft | 420 kts | 304° |
| 2026-05-08 04:15 | 42.10599 | 28.04212 | 28923 ft | 422 kts | 303° |
| 2026-05-08 04:15 | 42.12243 | 28.00934 | 29302 ft | 421 kts | 304° |
| 2026-05-08 04:16 | 42.13881 | 27.97666 | 29649 ft | 422 kts | 304° |
| 2026-05-08 04:16 | 42.15528 | 27.94379 | 29947 ft | 424 kts | 304° |
| 2026-05-08 04:16 | 42.17180 | 27.91078 | 30236 ft | 425 kts | 304° |
| 2026-05-08 04:16 | 42.18834 | 27.87768 | 30524 ft | 426 kts | 304° |
| 2026-05-08 04:17 | 42.20494 | 27.84461 | 30809 ft | 426 kts | 306° |
| 2026-05-08 04:17 | 42.22425 | 27.81450 | 31077 ft | 426 kts | 316° |
| 2026-05-08 04:17 | 42.24728 | 27.78907 | 31343 ft | 428 kts | 325° |
| 2026-05-08 04:17 | 42.27302 | 27.76886 | 31630 ft | 429 kts | 329° |
| 2026-05-08 04:18 | 42.29926 | 27.74954 | 31840 ft | 431 kts | 329° |
| 2026-05-08 04:18 | 42.32566 | 27.73024 | 32093 ft | 431 kts | 329° |
| 2026-05-08 04:18 | 42.35209 | 27.71097 | 32359 ft | 432 kts | 329° |
| 2026-05-08 04:18 | 42.37846 | 27.69165 | 32600 ft | 432 kts | 329° |
| 2026-05-08 04:19 | 42.40490 | 27.67221 | 32852 ft | 433 kts | 329° |
| 2026-05-08 04:19 | 42.43139 | 27.65274 | 33091 ft | 433 kts | 329° |
| 2026-05-08 04:19 | 42.45794 | 27.63325 | 33318 ft | 434 kts | 329° |
| 2026-05-08 04:19 | 42.48439 | 27.61380 | 33504 ft | 434 kts | 328° |
| 2026-05-08 04:20 | 42.51095 | 27.59423 | 33700 ft | 435 kts | 328° |
| 2026-05-08 04:20 | 42.53725 | 27.57482 | 33871 ft | 437 kts | 329° |
| 2026-05-08 04:20 | 42.56440 | 27.55480 | 34033 ft | 438 kts | 329° |
| 2026-05-08 04:20 | 42.59088 | 27.53418 | 34192 ft | 437 kts | 323° |
| 2026-05-08 04:21 | 42.64033 | 27.48586 | 34434 ft | 439 kts | 322° |
| 2026-05-08 04:21 | 42.66479 | 27.46193 | 34586 ft | 440 kts | 322° |
| 2026-05-08 04:21 | 42.68955 | 27.43756 | 34767 ft | 439 kts | 322° |
| 2026-05-08 04:22 | 42.71427 | 27.41320 | 34988 ft | 438 kts | 322° |
| 2026-05-08 04:22 | 42.73894 | 27.38892 | 35150 ft | 438 kts | 322° |
| 2026-05-08 04:22 | 42.76365 | 27.36458 | 35309 ft | 439 kts | 322° |
| 2026-05-08 04:22 | 42.78839 | 27.34017 | 35471 ft | 439 kts | 322° |
| 2026-05-08 04:23 | 42.83806 | 27.29107 | 35685 ft | 442 kts | 322° |
| 2026-05-08 04:23 | 42.86286 | 27.26654 | 35814 ft | 443 kts | 322° |
| 2026-05-08 04:23 | 42.88788 | 27.24175 | 35945 ft | 443 kts | 321° |
| 2026-05-08 04:24 | 42.91284 | 27.21700 | 36077 ft | 444 kts | 321° |
| 2026-05-08 04:24 | 42.93796 | 27.19205 | 36075 ft | 447 kts | 321° |
| 2026-05-08 04:24 | 42.98818 | 27.14213 | 36069 ft | 445 kts | 321° |
| 2026-05-08 04:25 | 43.03807 | 27.09242 | 36065 ft | 443 kts | 321° |
| 2026-05-08 04:25 | 43.08812 | 27.04245 | 36069 ft | 447 kts | 321° |
| 2026-05-08 04:26 | 43.13953 | 26.99476 | 36080 ft | 447 kts | 323° |
| 2026-05-08 04:26 | 43.19124 | 26.94724 | 36081 ft | 447 kts | 323° |
| 2026-05-08 04:27 | 43.24300 | 26.90019 | 36082 ft | 448 kts | 324° |
| 2026-05-08 04:27 | 43.29463 | 26.85324 | 36072 ft | 449 kts | 323° |
| 2026-05-08 04:28 | 43.34671 | 26.80568 | 36070 ft | 451 kts | 324° |
| 2026-05-08 04:28 | 43.39890 | 26.75800 | 36071 ft | 450 kts | 323° |
| 2026-05-08 04:29 | 43.45090 | 26.71033 | 36066 ft | 449 kts | 323° |
| 2026-05-08 04:29 | 43.50272 | 26.66277 | 36065 ft | 448 kts | 323° |
| 2026-05-08 04:30 | 43.55457 | 26.61506 | 36057 ft | 447 kts | 323° |
| 2026-05-08 04:30 | 43.60619 | 26.56747 | 36054 ft | 446 kts | 323° |
| 2026-05-08 04:31 | 43.65782 | 26.51976 | 36050 ft | 448 kts | 323° |
| 2026-05-08 04:31 | 43.70965 | 26.47178 | 36054 ft | 449 kts | 323° |
| 2026-05-08 04:32 | 43.76180 | 26.42338 | 36054 ft | 452 kts | 323° |
| 2026-05-08 04:32 | 43.81399 | 26.37487 | 36057 ft | 452 kts | 323° |
| 2026-05-08 04:33 | 43.86608 | 26.32632 | 36048 ft | 453 kts | 323° |
| 2026-05-08 04:33 | 43.91844 | 26.27743 | 36053 ft | 455 kts | 323° |
| 2026-05-08 04:34 | 43.97087 | 26.22838 | 36048 ft | 454 kts | 323° |
| 2026-05-08 04:34 | 44.02115 | 26.17612 | 36049 ft | 451 kts | 320° |
| 2026-05-08 04:35 | 44.07087 | 26.12290 | 36048 ft | 451 kts | 320° |
| 2026-05-08 04:35 | 44.12059 | 26.06939 | 36053 ft | 452 kts | 319° |
| 2026-05-08 04:36 | 44.17043 | 26.01570 | 36057 ft | 454 kts | 319° |
| 2026-05-08 04:36 | 44.22041 | 25.96172 | 36057 ft | 455 kts | 319° |
| 2026-05-08 04:37 | 44.27034 | 25.90769 | 36053 ft | 453 kts | 319° |
| 2026-05-08 04:37 | 44.31995 | 25.85388 | 36055 ft | 451 kts | 319° |
| 2026-05-08 04:38 | 44.36935 | 25.80016 | 36054 ft | 454 kts | 319° |
| 2026-05-08 04:38 | 44.41930 | 25.74577 | 36056 ft | 456 kts | 319° |
| 2026-05-08 04:39 | 44.46925 | 25.69123 | 36057 ft | 455 kts | 319° |
| 2026-05-08 04:39 | 44.51908 | 25.63670 | 36072 ft | 455 kts | 319° |
| 2026-05-08 04:40 | 44.56902 | 25.58192 | 36055 ft | 456 kts | 319° |
| 2026-05-08 04:40 | 44.61896 | 25.52703 | 36058 ft | 457 kts | 319° |
| 2026-05-08 04:41 | 44.66912 | 25.47177 | 36071 ft | 457 kts | 318° |
| 2026-05-08 04:41 | 44.71914 | 25.41654 | 36070 ft | 457 kts | 319° |
| 2026-05-08 04:42 | 44.76915 | 25.36119 | 36050 ft | 457 kts | 318° |
| 2026-05-08 04:42 | 44.81916 | 25.30572 | 36050 ft | 457 kts | 318° |
| 2026-05-08 04:43 | 44.86906 | 25.25025 | 36054 ft | 457 kts | 318° |
| 2026-05-08 04:43 | 44.91900 | 25.19459 | 36056 ft | 457 kts | 318° |
| 2026-05-08 04:44 | 44.96886 | 25.13890 | 36067 ft | 460 kts | 318° |
| 2026-05-08 04:44 | 45.01886 | 25.08294 | 36077 ft | 462 kts | 318° |
| 2026-05-08 04:45 | 45.06924 | 25.02643 | 36071 ft | 461 kts | 318° |
| 2026-05-08 04:45 | 45.11936 | 24.97006 | 36071 ft | 460 kts | 318° |
| 2026-05-08 04:46 | 45.16952 | 24.91353 | 36072 ft | 460 kts | 317° |
| 2026-05-08 04:46 | 45.21959 | 24.85696 | 36074 ft | 461 kts | 317° |
| 2026-05-08 04:47 | 45.26979 | 24.80010 | 36075 ft | 463 kts | 317° |
| 2026-05-08 04:47 | 45.32015 | 24.74295 | 36080 ft | 464 kts | 317° |
| 2026-05-08 04:48 | 45.37053 | 24.68564 | 36076 ft | 464 kts | 317° |
| 2026-05-08 04:48 | 45.42111 | 24.62795 | 36076 ft | 465 kts | 317° |
| 2026-05-08 04:49 | 45.47158 | 24.57027 | 36071 ft | 464 kts | 317° |
| 2026-05-08 04:49 | 45.52176 | 24.51276 | 36066 ft | 462 kts | 317° |
| 2026-05-08 04:50 | 45.57203 | 24.45501 | 36074 ft | 467 kts | 317° |
| 2026-05-08 04:50 | 45.62261 | 24.39682 | 36075 ft | 468 kts | 317° |
| 2026-05-08 04:51 | 45.67331 | 24.33830 | 36072 ft | 467 kts | 317° |
| 2026-05-08 04:51 | 45.72381 | 24.27988 | 36079 ft | 467 kts | 317° |
| 2026-05-08 04:52 | 45.77435 | 24.22129 | 36064 ft | 467 kts | 317° |
| 2026-05-08 04:52 | 45.82437 | 24.16315 | 36083 ft | 464 kts | 317° |
| 2026-05-08 04:53 | 45.87482 | 24.10434 | 36080 ft | 470 kts | 317° |
| 2026-05-08 04:53 | 45.92554 | 24.04514 | 36073 ft | 469 kts | 317° |
| 2026-05-08 04:54 | 45.97601 | 23.98604 | 36069 ft | 467 kts | 317° |
| 2026-05-08 04:54 | 46.02636 | 23.92695 | 36055 ft | 467 kts | 317° |
| 2026-05-08 04:55 | 46.07668 | 23.86774 | 36052 ft | 468 kts | 317° |
| 2026-05-08 04:55 | 46.12717 | 23.80820 | 36050 ft | 470 kts | 317° |
| 2026-05-08 04:56 | 46.17781 | 23.74832 | 36067 ft | 472 kts | 317° |
| 2026-05-08 04:56 | 46.22857 | 23.68818 | 36053 ft | 471 kts | 317° |
| 2026-05-08 04:57 | 46.27910 | 23.62815 | 36055 ft | 469 kts | 316° |
| 2026-05-08 04:57 | 46.32948 | 23.56815 | 36050 ft | 469 kts | 316° |
| 2026-05-08 04:58 | 46.37984 | 23.50801 | 36051 ft | 470 kts | 316° |
| 2026-05-08 04:58 | 46.43049 | 23.44739 | 36048 ft | 472 kts | 316° |
| 2026-05-08 04:59 | 46.48094 | 23.38687 | 36046 ft | 470 kts | 316° |
| 2026-05-08 04:59 | 46.52268 | 23.33666 | 36045 ft | 469 kts | 316° |
| 2026-05-08 05:00 | 46.57286 | 23.27617 | 36051 ft | 470 kts | 316° |
| 2026-05-08 05:00 | 46.63142 | 23.20540 | 36058 ft | 470 kts | 316° |
| 2026-05-08 05:01 | 46.67352 | 23.15440 | 36062 ft | 471 kts | 316° |
| 2026-05-08 05:01 | 46.72393 | 23.09316 | 36052 ft | 472 kts | 316° |
| 2026-05-08 05:02 | 46.77449 | 23.03161 | 36059 ft | 475 kts | 316° |
| 2026-05-08 05:02 | 46.82515 | 22.96979 | 36054 ft | 475 kts | 316° |
| 2026-05-08 05:03 | 46.87567 | 22.90797 | 36061 ft | 473 kts | 316° |
| 2026-05-08 05:03 | 46.92604 | 22.84617 | 36053 ft | 472 kts | 315° |
| 2026-05-08 05:04 | 46.97627 | 22.78439 | 36054 ft | 472 kts | 315° |
| 2026-05-08 05:04 | 47.02624 | 22.72275 | 36082 ft | 474 kts | 314° |
| 2026-05-08 05:05 | 47.07299 | 22.65489 | 36064 ft | 474 kts | 311° |
| 2026-05-08 05:05 | 47.11956 | 22.58656 | 36064 ft | 473 kts | 310° |
| 2026-05-08 05:06 | 47.16580 | 22.51786 | 36067 ft | 472 kts | 310° |
| 2026-05-08 05:06 | 47.21205 | 22.44935 | 36064 ft | 472 kts | 310° |
| 2026-05-08 05:07 | 47.25820 | 22.38061 | 36050 ft | 471 kts | 310° |
| 2026-05-08 05:07 | 47.30414 | 22.31211 | 36047 ft | 470 kts | 310° |
| 2026-05-08 05:08 | 47.35006 | 22.24337 | 36056 ft | 474 kts | 310° |
| 2026-05-08 05:08 | 47.39652 | 22.17372 | 36063 ft | 476 kts | 310° |
| 2026-05-08 05:09 | 47.44290 | 22.10396 | 36059 ft | 476 kts | 310° |
| 2026-05-08 05:09 | 47.48910 | 22.03430 | 36057 ft | 474 kts | 310° |
| 2026-05-08 05:10 | 47.55809 | 21.92992 | 36051 ft | 473 kts | 310° |
| 2026-05-08 05:11 | 47.60413 | 21.86002 | 36073 ft | 474 kts | 310° |
| 2026-05-08 05:11 | 47.64985 | 21.79044 | 36051 ft | 474 kts | 310° |
| 2026-05-08 05:12 | 47.69633 | 21.71946 | 36058 ft | 478 kts | 310° |
| 2026-05-08 05:12 | 47.74229 | 21.64917 | 36057 ft | 477 kts | 310° |
| 2026-05-08 05:13 | 47.78839 | 21.57841 | 36059 ft | 476 kts | 309° |
| 2026-05-08 05:13 | 47.83450 | 21.50747 | 36047 ft | 476 kts | 309° |
| 2026-05-08 05:14 | 47.88034 | 21.43674 | 36046 ft | 474 kts | 309° |
| 2026-05-08 05:14 | 47.92615 | 21.36586 | 36045 ft | 475 kts | 309° |
| 2026-05-08 05:15 | 47.97201 | 21.29473 | 36049 ft | 476 kts | 309° |
| 2026-05-08 05:15 | 48.01807 | 21.22305 | 36050 ft | 480 kts | 309° |
| 2026-05-08 05:16 | 48.06425 | 21.15106 | 36044 ft | 479 kts | 309° |
| 2026-05-08 05:16 | 48.11025 | 21.07909 | 36041 ft | 479 kts | 309° |
| 2026-05-08 05:17 | 48.15623 | 21.00698 | 36042 ft | 478 kts | 309° |
| 2026-05-08 05:17 | 48.20211 | 20.93481 | 36032 ft | 478 kts | 309° |
| 2026-05-08 05:18 | 48.24750 | 20.86323 | 36040 ft | 476 kts | 309° |
| 2026-05-08 05:18 | 48.29301 | 20.79123 | 36044 ft | 476 kts | 309° |
| 2026-05-08 05:19 | 48.33891 | 20.71842 | 36047 ft | 481 kts | 309° |
| 2026-05-08 05:19 | 48.38493 | 20.64526 | 36073 ft | 481 kts | 309° |
| 2026-05-08 05:20 | 48.43078 | 20.57212 | 36046 ft | 479 kts | 308° |
| 2026-05-08 05:20 | 48.47696 | 20.49978 | 36050 ft | 481 kts | 315° |
| 2026-05-08 05:21 | 48.53325 | 20.44347 | 36044 ft | 490 kts | 324° |
| 2026-05-08 05:21 | 48.59221 | 20.39154 | 36057 ft | 490 kts | 325° |
| 2026-05-08 05:22 | 48.65125 | 20.33932 | 36047 ft | 492 kts | 325° |
| 2026-05-08 05:22 | 48.71007 | 20.28719 | 36041 ft | 489 kts | 325° |
| 2026-05-08 05:23 | 48.76883 | 20.23495 | 36043 ft | 490 kts | 325° |
| 2026-05-08 05:23 | 48.82751 | 20.18263 | 36051 ft | 490 kts | 325° |
| 2026-05-08 05:24 | 48.88626 | 20.13010 | 36051 ft | 491 kts | 325° |
| 2026-05-08 05:24 | 48.94530 | 20.07718 | 36058 ft | 492 kts | 325° |
| 2026-05-08 05:25 | 49.00373 | 20.02469 | 36054 ft | 490 kts | 325° |
| 2026-05-08 05:25 | 49.06229 | 19.97188 | 36050 ft | 489 kts | 325° |
| 2026-05-08 05:26 | 49.12132 | 19.91854 | 36056 ft | 490 kts | 325° |
| 2026-05-08 05:26 | 49.18001 | 19.86533 | 36053 ft | 493 kts | 325° |
| 2026-05-08 05:27 | 49.23864 | 19.81206 | 36050 ft | 493 kts | 325° |
| 2026-05-08 05:27 | 49.29749 | 19.75841 | 36048 ft | 491 kts | 325° |
| 2026-05-08 05:28 | 49.35621 | 19.70474 | 36048 ft | 492 kts | 325° |
| 2026-05-08 05:28 | 49.41498 | 19.65088 | 36048 ft | 492 kts | 325° |
| 2026-05-08 05:29 | 49.47376 | 19.59684 | 36053 ft | 492 kts | 325° |
| 2026-05-08 05:29 | 49.53244 | 19.54276 | 36063 ft | 490 kts | 325° |
| 2026-05-08 05:30 | 49.59085 | 19.48875 | 36061 ft | 490 kts | 325° |
| 2026-05-08 05:30 | 49.64830 | 19.43271 | 36069 ft | 489 kts | 323° |
| 2026-05-08 05:31 | 49.70589 | 19.37633 | 36062 ft | 490 kts | 323° |
| 2026-05-08 05:31 | 49.76317 | 19.31891 | 36092 ft | 492 kts | 323° |
| 2026-05-08 05:32 | 49.82066 | 19.26177 | 36066 ft | 489 kts | 323° |
| 2026-05-08 05:32 | 49.87766 | 19.20459 | 36069 ft | 489 kts | 323° |
| 2026-05-08 05:33 | 49.93451 | 19.14758 | 36071 ft | 489 kts | 323° |
| 2026-05-08 05:33 | 49.99176 | 19.08993 | 36086 ft | 491 kts | 323° |
| 2026-05-08 05:34 | 50.04876 | 19.03240 | 36092 ft | 492 kts | 323° |
| 2026-05-08 05:34 | 50.10610 | 18.97436 | 36085 ft | 489 kts | 323° |
| 2026-05-08 05:35 | 50.16306 | 18.91651 | 36077 ft | 488 kts | 323° |
| 2026-05-08 05:35 | 50.21991 | 18.85862 | 36083 ft | 488 kts | 323° |
| 2026-05-08 05:36 | 50.27692 | 18.80040 | 36089 ft | 490 kts | 323° |
| 2026-05-08 05:36 | 50.33352 | 18.74243 | 36097 ft | 493 kts | 323° |
| 2026-05-08 05:37 | 50.39066 | 18.68376 | 36094 ft | 489 kts | 323° |
| 2026-05-08 05:37 | 50.44716 | 18.62553 | 36090 ft | 488 kts | 323° |
| 2026-05-08 05:38 | 50.50402 | 18.56678 | 36093 ft | 488 kts | 323° |
| 2026-05-08 05:38 | 50.56078 | 18.50797 | 36095 ft | 489 kts | 323° |
| 2026-05-08 05:39 | 50.61769 | 18.44883 | 36103 ft | 491 kts | 323° |
| 2026-05-08 05:39 | 50.67367 | 18.38723 | 36100 ft | 490 kts | 320° |
| 2026-05-08 05:40 | 50.72798 | 18.32226 | 36102 ft | 490 kts | 320° |
| 2026-05-08 05:40 | 50.78187 | 18.25740 | 36105 ft | 489 kts | 320° |
| 2026-05-08 05:41 | 50.83602 | 18.19205 | 36109 ft | 489 kts | 320° |
| 2026-05-08 05:41 | 50.89020 | 18.12650 | 36114 ft | 491 kts | 320° |
| 2026-05-08 05:42 | 50.94432 | 18.06080 | 36117 ft | 489 kts | 320° |
| 2026-05-08 05:42 | 50.99825 | 17.99515 | 36122 ft | 488 kts | 320° |
| 2026-05-08 05:43 | 51.05215 | 17.92933 | 36121 ft | 488 kts | 320° |
| 2026-05-08 05:43 | 51.10564 | 17.86383 | 36124 ft | 488 kts | 320° |
| 2026-05-08 05:44 | 51.15942 | 17.79775 | 36137 ft | 488 kts | 320° |
| 2026-05-08 05:44 | 51.21309 | 17.73162 | 36134 ft | 488 kts | 320° |
| 2026-05-08 05:45 | 51.26694 | 17.66505 | 36137 ft | 489 kts | 320° |
| 2026-05-08 05:45 | 51.32082 | 17.59827 | 36143 ft | 490 kts | 320° |
| 2026-05-08 05:46 | 51.37425 | 17.53182 | 36143 ft | 490 kts | 320° |
| 2026-05-08 05:46 | 51.42799 | 17.46480 | 36145 ft | 488 kts | 320° |
| 2026-05-08 05:47 | 51.48138 | 17.39801 | 36148 ft | 486 kts | 320° |
| 2026-05-08 05:47 | 51.53481 | 17.33094 | 36152 ft | 489 kts | 320° |
| 2026-05-08 05:48 | 51.58593 | 17.26661 | 36155 ft | 489 kts | 320° |
| 2026-05-08 05:48 | 51.64064 | 17.19753 | 36156 ft | 489 kts | 320° |
| 2026-05-08 05:49 | 51.69418 | 17.12973 | 36152 ft | 487 kts | 320° |
| 2026-05-08 05:49 | 51.74717 | 17.06242 | 36152 ft | 484 kts | 320° |
| 2026-05-08 05:50 | 51.79976 | 16.99538 | 36152 ft | 486 kts | 320° |
| 2026-05-08 05:50 | 51.85296 | 16.92739 | 36158 ft | 488 kts | 320° |
| 2026-05-08 05:51 | 51.89729 | 16.87057 | 36157 ft | 488 kts | 320° |
| 2026-05-08 05:51 | 51.95051 | 16.80214 | 36158 ft | 488 kts | 320° |
| 2026-05-08 05:52 | 52.00340 | 16.73396 | 36154 ft | 484 kts | 320° |
| 2026-05-08 05:52 | 52.05606 | 16.66583 | 36151 ft | 484 kts | 320° |
| 2026-05-08 05:53 | 52.10877 | 16.59745 | 36158 ft | 486 kts | 320° |
| 2026-05-08 05:53 | 52.16170 | 16.52855 | 36165 ft | 488 kts | 320° |
| 2026-05-08 05:54 | 52.21468 | 16.45937 | 36162 ft | 487 kts | 320° |
| 2026-05-08 05:54 | 52.26731 | 16.39044 | 36159 ft | 484 kts | 319° |
| 2026-05-08 05:55 | 52.31972 | 16.32157 | 36160 ft | 483 kts | 319° |
| 2026-05-08 05:55 | 52.37177 | 16.25297 | 36164 ft | 483 kts | 319° |
| 2026-05-08 05:56 | 52.42417 | 16.18369 | 36164 ft | 484 kts | 319° |
| 2026-05-08 05:56 | 52.47657 | 16.11418 | 36171 ft | 484 kts | 319° |
| 2026-05-08 05:57 | 52.52883 | 16.04465 | 36179 ft | 483 kts | 319° |
| 2026-05-08 05:57 | 52.58042 | 15.97580 | 36178 ft | 482 kts | 319° |
| 2026-05-08 05:58 | 52.63227 | 15.90638 | 36173 ft | 481 kts | 319° |
| 2026-05-08 05:58 | 52.68419 | 15.83663 | 36183 ft | 481 kts | 319° |
| 2026-05-08 05:59 | 52.73625 | 15.76648 | 36188 ft | 485 kts | 319° |
| 2026-05-08 05:59 | 52.78846 | 15.69591 | 36186 ft | 484 kts | 319° |
| 2026-05-08 06:00 | 52.84040 | 15.62547 | 36186 ft | 482 kts | 319° |
| 2026-05-08 06:00 | 52.89220 | 15.55501 | 36187 ft | 482 kts | 319° |
| 2026-05-08 06:01 | 52.94400 | 15.48431 | 36192 ft | 483 kts | 319° |
| 2026-05-08 06:01 | 52.99561 | 15.41365 | 36201 ft | 484 kts | 319° |
| 2026-05-08 06:02 | 53.04769 | 15.34211 | 36195 ft | 485 kts | 319° |
| 2026-05-08 06:02 | 53.09965 | 15.27053 | 36200 ft | 483 kts | 319° |
| 2026-05-08 06:03 | 53.15133 | 15.19907 | 36196 ft | 482 kts | 319° |
| 2026-05-08 06:03 | 53.20290 | 15.12754 | 36199 ft | 483 kts | 319° |
| 2026-05-08 06:04 | 53.25468 | 15.05550 | 36201 ft | 485 kts | 319° |
| 2026-05-08 06:04 | 53.30618 | 14.98361 | 36212 ft | 486 kts | 319° |
| 2026-05-08 06:05 | 53.35812 | 14.91086 | 36207 ft | 486 kts | 319° |
| 2026-05-08 06:05 | 53.40817 | 14.83523 | 36205 ft | 484 kts | 315° |
| 2026-05-08 06:06 | 53.45740 | 14.75817 | 36194 ft | 484 kts | 315° |
| 2026-05-08 06:06 | 53.50640 | 14.68027 | 36194 ft | 485 kts | 315° |
| 2026-05-08 06:07 | 53.55551 | 14.60242 | 36201 ft | 485 kts | 315° |
| 2026-05-08 06:07 | 53.60346 | 14.52593 | 36203 ft | 483 kts | 315° |
| 2026-05-08 06:08 | 53.65195 | 14.44842 | 36204 ft | 484 kts | 315° |
| 2026-05-08 06:08 | 53.70081 | 14.37003 | 36218 ft | 485 kts | 315° |
| 2026-05-08 06:09 | 53.74966 | 14.29137 | 36216 ft | 484 kts | 315° |
| 2026-05-08 06:09 | 53.79861 | 14.21318 | 36223 ft | 484 kts | 316° |
| 2026-05-08 06:10 | 53.84768 | 14.13542 | 36220 ft | 483 kts | 315° |
| 2026-05-08 06:10 | 53.89631 | 14.05745 | 36227 ft | 484 kts | 315° |
| 2026-05-08 06:11 | 53.94535 | 13.97896 | 36215 ft | 484 kts | 315° |
| 2026-05-08 06:11 | 53.99440 | 13.89996 | 36234 ft | 487 kts | 315° |
| 2026-05-08 06:12 | 54.04358 | 13.82060 | 36232 ft | 487 kts | 315° |
| 2026-05-08 06:12 | 54.09253 | 13.74129 | 36221 ft | 485 kts | 315° |
| 2026-05-08 06:13 | 54.14131 | 13.66198 | 36223 ft | 484 kts | 315° |
| 2026-05-08 06:13 | 54.19012 | 13.58238 | 36224 ft | 485 kts | 315° |
| 2026-05-08 06:14 | 54.23883 | 13.50264 | 36220 ft | 484 kts | 315° |
| 2026-05-08 06:14 | 54.28724 | 13.42313 | 36222 ft | 486 kts | 315° |
| 2026-05-08 06:15 | 54.33615 | 13.34253 | 36236 ft | 488 kts | 315° |
| 2026-05-08 06:15 | 54.38502 | 13.26171 | 36233 ft | 488 kts | 315° |
| 2026-05-08 06:16 | 54.43342 | 13.18102 | 36246 ft | 486 kts | 311° |
| 2026-05-08 06:16 | 54.45348 | 13.13669 | 36262 ft | 485 kts | 300° |
| 2026-05-08 06:16 | 54.46858 | 13.08504 | 36264 ft | 484 kts | 288° |
| 2026-05-08 06:17 | 54.49859 | 12.91891 | 36228 ft | 484 kts | 286° |
| 2026-05-08 06:17 | 54.51818 | 12.80780 | 36229 ft | 486 kts | 287° |
| 2026-05-08 06:18 | 54.54726 | 12.70265 | 36240 ft | 487 kts | 298° |
| 2026-05-08 06:18 | 54.58059 | 12.60105 | 36222 ft | 486 kts | 298° |
| 2026-05-08 06:19 | 54.61303 | 12.49867 | 36216 ft | 486 kts | 298° |
| 2026-05-08 06:19 | 54.64571 | 12.39672 | 36226 ft | 489 kts | 298° |
| 2026-05-08 06:20 | 54.67854 | 12.29311 | 36220 ft | 492 kts | 298° |
| 2026-05-08 06:20 | 54.71129 | 12.18959 | 36220 ft | 490 kts | 298° |
| 2026-05-08 06:21 | 54.74369 | 12.08665 | 36226 ft | 490 kts | 298° |
| 2026-05-08 06:21 | 54.77625 | 11.98279 | 36233 ft | 489 kts | 298° |
| 2026-05-08 06:22 | 54.80864 | 11.87903 | 36229 ft | 489 kts | 297° |
| 2026-05-08 06:22 | 54.84068 | 11.77589 | 36235 ft | 488 kts | 297° |
| 2026-05-08 06:23 | 54.87291 | 11.67173 | 36229 ft | 489 kts | 297° |
| 2026-05-08 06:23 | 54.90508 | 11.56730 | 36235 ft | 490 kts | 297° |
| 2026-05-08 06:24 | 54.93713 | 11.46281 | 36241 ft | 489 kts | 297° |
| 2026-05-08 06:24 | 54.96883 | 11.35901 | 36244 ft | 488 kts | 297° |
| 2026-05-08 06:25 | 55.00059 | 11.25454 | 36240 ft | 487 kts | 297° |
| 2026-05-08 06:25 | 55.03232 | 11.14970 | 36235 ft | 491 kts | 297° |
| 2026-05-08 06:26 | 55.06418 | 11.04398 | 36238 ft | 493 kts | 297° |
| 2026-05-08 06:26 | 55.09602 | 10.93786 | 36247 ft | 493 kts | 296° |
| 2026-05-08 06:27 | 55.12757 | 10.83222 | 36247 ft | 492 kts | 296° |
| 2026-05-08 06:27 | 55.15917 | 10.72595 | 36243 ft | 492 kts | 296° |
| 2026-05-08 06:28 | 55.19068 | 10.61950 | 36243 ft | 492 kts | 296° |
| 2026-05-08 06:28 | 55.22184 | 10.51375 | 36240 ft | 491 kts | 296° |
| 2026-05-08 06:29 | 55.25307 | 10.40725 | 36237 ft | 491 kts | 296° |
| 2026-05-08 06:29 | 55.28423 | 10.30056 | 36241 ft | 491 kts | 296° |
| 2026-05-08 06:30 | 55.31525 | 10.19383 | 36235 ft | 491 kts | 296° |
| 2026-05-08 06:30 | 55.34619 | 10.08689 | 36233 ft | 491 kts | 296° |
| 2026-05-08 06:31 | 55.37701 | 9.97990 | 36242 ft | 490 kts | 295° |
| 2026-05-08 06:31 | 55.40782 | 9.87243 | 36244 ft | 493 kts | 295° |
| 2026-05-08 06:32 | 55.43865 | 9.76438 | 36237 ft | 494 kts | 295° |
| 2026-05-08 06:32 | 55.46939 | 9.65615 | 36237 ft | 494 kts | 295° |
| 2026-05-08 06:33 | 55.50007 | 9.54765 | 36230 ft | 494 kts | 295° |
| 2026-05-08 06:33 | 55.53040 | 9.43988 | 36231 ft | 494 kts | 295° |
| 2026-05-08 06:34 | 55.56086 | 9.33112 | 36235 ft | 493 kts | 295° |
| 2026-05-08 06:34 | 55.59116 | 9.22243 | 36239 ft | 492 kts | 295° |
| 2026-05-08 06:35 | 55.62135 | 9.11361 | 36238 ft | 492 kts | 295° |
| 2026-05-08 06:35 | 55.65138 | 9.00484 | 36235 ft | 491 kts | 294° |
| 2026-05-08 06:36 | 55.68115 | 8.89656 | 36239 ft | 493 kts | 294° |
| 2026-05-08 06:36 | 55.71110 | 8.78704 | 36240 ft | 495 kts | 294° |
| 2026-05-08 06:37 | 55.74105 | 8.67703 | 36237 ft | 495 kts | 294° |
| 2026-05-08 06:37 | 55.77087 | 8.56695 | 36232 ft | 494 kts | 294° |
| 2026-05-08 06:38 | 55.79989 | 8.45933 | 36239 ft | 492 kts | 294° |
| 2026-05-08 06:38 | 55.82442 | 8.36795 | 36229 ft | 493 kts | 294° |
| 2026-05-08 06:39 | 55.85871 | 8.23961 | 36224 ft | 493 kts | 294° |
| 2026-05-08 06:39 | 55.88808 | 8.12908 | 36227 ft | 494 kts | 293° |
| 2026-05-08 06:40 | 55.91262 | 8.03631 | 36228 ft | 494 kts | 293° |
| 2026-05-08 06:40 | 55.94171 | 7.92586 | 36244 ft | 495 kts | 293° |
| 2026-05-08 06:41 | 55.97090 | 7.81450 | 36224 ft | 494 kts | 293° |
| 2026-05-08 06:41 | 55.99991 | 7.70324 | 36220 ft | 493 kts | 293° |
| 2026-05-08 06:42 | 56.02875 | 7.59210 | 36220 ft | 492 kts | 293° |
| 2026-05-08 06:42 | 56.05728 | 7.48163 | 36213 ft | 493 kts | 292° |
| 2026-05-08 06:43 | 56.08601 | 7.36980 | 36214 ft | 495 kts | 292° |
| 2026-05-08 06:43 | 56.11467 | 7.25769 | 36212 ft | 494 kts | 292° |
| 2026-05-08 06:44 | 56.14315 | 7.14570 | 36215 ft | 493 kts | 292° |
| 2026-05-08 06:44 | 56.17150 | 7.03369 | 36214 ft | 493 kts | 292° |
| 2026-05-08 06:45 | 56.19975 | 6.92151 | 36217 ft | 492 kts | 292° |
| 2026-05-08 06:45 | 56.22770 | 6.80994 | 36202 ft | 492 kts | 291° |
| 2026-05-08 06:46 | 56.25565 | 6.69780 | 36200 ft | 492 kts | 291° |
| 2026-05-08 06:46 | 56.28356 | 6.58526 | 36202 ft | 493 kts | 291° |
| 2026-05-08 06:47 | 56.31150 | 6.47203 | 36208 ft | 494 kts | 291° |
| 2026-05-08 06:47 | 56.33920 | 6.35920 | 36219 ft | 494 kts | 291° |
| 2026-05-08 06:48 | 56.36691 | 6.24569 | 36208 ft | 492 kts | 291° |
| 2026-05-08 06:48 | 56.39438 | 6.13261 | 36202 ft | 491 kts | 291° |
| 2026-05-08 06:49 | 56.42175 | 6.01936 | 36199 ft | 491 kts | 291° |
| 2026-05-08 06:49 | 56.44877 | 5.90696 | 36201 ft | 491 kts | 290° |
| 2026-05-08 06:50 | 56.47598 | 5.79318 | 36203 ft | 493 kts | 290° |
| 2026-05-08 06:50 | 56.50313 | 5.67907 | 36209 ft | 493 kts | 290° |
| 2026-05-08 06:51 | 56.53008 | 5.56520 | 36206 ft | 491 kts | 290° |
| 2026-05-08 06:51 | 56.55687 | 5.45139 | 36203 ft | 490 kts | 290° |
| 2026-05-08 06:52 | 56.58353 | 5.33752 | 36199 ft | 490 kts | 290° |
| 2026-05-08 06:52 | 56.60995 | 5.22411 | 36202 ft | 491 kts | 290° |
| 2026-05-08 06:53 | 56.63642 | 5.10985 | 36196 ft | 491 kts | 290° |
| 2026-05-08 06:53 | 56.66281 | 4.99533 | 36199 ft | 491 kts | 290° |
| 2026-05-08 06:54 | 56.68911 | 4.88058 | 36195 ft | 491 kts | 289° |
| 2026-05-08 06:54 | 56.71532 | 4.76562 | 36195 ft | 492 kts | 289° |
| 2026-05-08 06:55 | 56.74141 | 4.65055 | 36211 ft | 492 kts | 289° |
| 2026-05-08 06:55 | 56.76733 | 4.53564 | 36182 ft | 487 kts | 289° |
| 2026-05-08 06:56 | 56.79292 | 4.42143 | 36183 ft | 490 kts | 289° |
| 2026-05-08 06:56 | 56.81869 | 4.30594 | 36193 ft | 491 kts | 289° |
| 2026-05-08 06:57 | 56.84435 | 4.19024 | 36186 ft | 491 kts | 289° |
| 2026-05-08 06:57 | 56.86989 | 4.07446 | 36182 ft | 491 kts | 289° |
| 2026-05-08 06:58 | 56.89576 | 3.95990 | 36176 ft | 486 kts | 296° |
| 2026-05-08 06:58 | 56.93064 | 3.85374 | 36363 ft | 490 kts | 298° |
| 2026-05-08 06:59 | 56.94858 | 3.80056 | 36624 ft | 489 kts | 298° |
| 2026-05-08 06:59 | 56.96632 | 3.74752 | 36826 ft | 488 kts | 298° |
| 2026-05-08 06:59 | 56.98393 | 3.69441 | 37032 ft | 488 kts | 298° |
| 2026-05-08 06:59 | 57.00154 | 3.64130 | 37254 ft | 487 kts | 298° |
| 2026-05-08 07:00 | 57.01922 | 3.58809 | 37469 ft | 486 kts | 298° |
| 2026-05-08 07:00 | 57.03660 | 3.53565 | 37689 ft | 486 kts | 298° |
| 2026-05-08 07:00 | 57.05407 | 3.48266 | 37985 ft | 483 kts | 298° |
| 2026-05-08 07:00 | 57.07147 | 3.42978 | 38167 ft | 484 kts | 298° |
| 2026-05-08 07:01 | 57.10637 | 3.32348 | 38148 ft | 485 kts | 298° |
| 2026-05-08 07:01 | 57.14102 | 3.21748 | 38141 ft | 481 kts | 298° |
| 2026-05-08 07:02 | 57.17541 | 3.11174 | 38136 ft | 480 kts | 298° |
| 2026-05-08 07:02 | 57.20966 | 3.00601 | 38119 ft | 481 kts | 297° |
| 2026-05-08 07:03 | 57.24392 | 2.89977 | 38136 ft | 480 kts | 297° |
| 2026-05-08 07:03 | 57.27791 | 2.79389 | 38090 ft | 478 kts | 297° |
| 2026-05-08 07:04 | 57.31153 | 2.68868 | 38090 ft | 478 kts | 297° |
| 2026-05-08 07:04 | 57.34531 | 2.58251 | 38094 ft | 478 kts | 297° |
| 2026-05-08 07:05 | 57.37897 | 2.47623 | 38091 ft | 479 kts | 297° |
| 2026-05-08 07:05 | 57.41270 | 2.36926 | 38106 ft | 481 kts | 297° |
| 2026-05-08 07:06 | 57.44626 | 2.26237 | 38097 ft | 476 kts | 297° |
| 2026-05-08 07:06 | 57.47951 | 2.15592 | 38097 ft | 476 kts | 296° |
| 2026-05-08 07:07 | 57.51247 | 2.05000 | 38090 ft | 476 kts | 296° |
| 2026-05-08 07:07 | 57.54552 | 1.94327 | 38090 ft | 476 kts | 296° |
| 2026-05-08 07:08 | 57.57851 | 1.83625 | 38085 ft | 476 kts | 296° |
| 2026-05-08 07:08 | 57.61135 | 1.72924 | 38089 ft | 475 kts | 296° |
| 2026-05-08 07:09 | 57.64409 | 1.62205 | 38096 ft | 473 kts | 296° |
| 2026-05-08 07:09 | 57.67651 | 1.51539 | 38084 ft | 476 kts | 296° |
| 2026-05-08 07:10 | 57.70920 | 1.40740 | 38071 ft | 478 kts | 296° |
| 2026-05-08 07:10 | 57.74188 | 1.29897 | 38068 ft | 477 kts | 296° |
| 2026-05-08 07:11 | 57.77433 | 1.19076 | 38065 ft | 476 kts | 295° |
| 2026-05-08 07:11 | 57.80663 | 1.08254 | 38043 ft | 475 kts | 295° |
| 2026-05-08 07:12 | 57.83828 | 0.97599 | 38042 ft | 476 kts | 295° |
| 2026-05-08 07:12 | 57.87047 | 0.86717 | 38034 ft | 476 kts | 295° |
| 2026-05-08 07:13 | 57.90241 | 0.75868 | 38039 ft | 476 kts | 295° |
| 2026-05-08 07:13 | 57.93447 | 0.64925 | 38027 ft | 477 kts | 295° |
| 2026-05-08 07:14 | 57.95886 | 0.53459 | 38045 ft | 470 kts | 281° |
| 2026-05-08 07:14 | 57.97590 | 0.41617 | 38029 ft | 470 kts | 281° |
| 2026-05-08 07:15 | 57.99283 | 0.29687 | 38029 ft | 470 kts | 281° |
| 2026-05-08 07:15 | 58.00966 | 0.17778 | 38016 ft | 470 kts | 281° |
| 2026-05-08 07:16 | 58.02623 | 0.05941 | 38017 ft | 469 kts | 281° |
| 2026-05-08 07:16 | 58.04285 | -0.06008 | 37998 ft | 470 kts | 281° |
| 2026-05-08 07:17 | 58.05930 | -0.17933 | 37998 ft | 469 kts | 281° |
| 2026-05-08 07:17 | 58.07564 | -0.29870 | 37997 ft | 469 kts | 280° |
| 2026-05-08 07:18 | 58.09184 | -0.41790 | 37998 ft | 468 kts | 280° |
| 2026-05-08 07:18 | 58.10793 | -0.53731 | 37988 ft | 468 kts | 280° |
| 2026-05-08 07:19 | 58.12380 | -0.65593 | 37988 ft | 467 kts | 280° |
| 2026-05-08 07:19 | 58.13965 | -0.77537 | 37978 ft | 467 kts | 280° |
| 2026-05-08 07:20 | 58.15510 | -0.89279 | 37978 ft | 469 kts | 280° |
| 2026-05-08 07:20 | 58.17079 | -1.01289 | 37980 ft | 470 kts | 280° |
| 2026-05-08 07:21 | 58.18642 | -1.13350 | 37980 ft | 472 kts | 280° |
| 2026-05-08 07:21 | 58.20196 | -1.25446 | 37986 ft | 472 kts | 280° |
| 2026-05-08 07:22 | 58.21725 | -1.37436 | 37970 ft | 468 kts | 279° |
| 2026-05-08 07:22 | 58.23243 | -1.49449 | 37948 ft | 468 kts | 279° |
| 2026-05-08 07:23 | 58.24749 | -1.61465 | 37959 ft | 468 kts | 279° |
| 2026-05-08 07:23 | 58.26246 | -1.73507 | 37957 ft | 469 kts | 279° |
| 2026-05-08 07:24 | 58.27732 | -1.85568 | 37982 ft | 469 kts | 279° |
| 2026-05-08 07:24 | 58.29212 | -1.97678 | 37957 ft | 470 kts | 279° |
| 2026-05-08 07:25 | 58.30672 | -2.09721 | 37948 ft | 469 kts | 279° |
| 2026-05-08 07:26 | 58.32848 | -2.27878 | 37946 ft | 469 kts | 279° |
| 2026-05-08 07:26 | 58.34286 | -2.40012 | 37944 ft | 469 kts | 279° |
| 2026-05-08 07:27 | 58.35470 | -2.50077 | 37941 ft | 469 kts | 279° |
| 2026-05-08 07:27 | 58.36890 | -2.62248 | 37935 ft | 472 kts | 279° |
| 2026-05-08 07:28 | 58.38304 | -2.74473 | 37930 ft | 472 kts | 279° |
| 2026-05-08 07:28 | 58.39706 | -2.86711 | 37922 ft | 472 kts | 279° |
| 2026-05-08 07:29 | 58.41086 | -2.98866 | 37920 ft | 472 kts | 279° |
| 2026-05-08 07:29 | 58.42463 | -3.11114 | 37939 ft | 472 kts | 279° |
| 2026-05-08 07:30 | 58.43833 | -3.23406 | 37926 ft | 475 kts | 279° |
| 2026-05-08 07:30 | 58.45201 | -3.35795 | 37917 ft | 477 kts | 279° |
| 2026-05-08 07:31 | 58.46551 | -3.48143 | 37920 ft | 478 kts | 279° |
| 2026-05-08 07:31 | 58.47900 | -3.60594 | 37903 ft | 476 kts | 279° |
| 2026-05-08 07:32 | 58.49229 | -3.72990 | 37893 ft | 475 kts | 279° |
| 2026-05-08 07:32 | 58.50533 | -3.85253 | 37892 ft | 470 kts | 278° |
| 2026-05-08 07:33 | 58.51820 | -3.97504 | 37885 ft | 469 kts | 278° |
| 2026-05-08 07:33 | 58.53099 | -4.09773 | 37871 ft | 471 kts | 278° |
| 2026-05-08 07:34 | 58.54369 | -4.22091 | 37880 ft | 472 kts | 278° |
| 2026-05-08 07:34 | 58.55630 | -4.34443 | 37879 ft | 473 kts | 277° |
| 2026-05-08 07:35 | 58.56880 | -4.46807 | 37873 ft | 470 kts | 277° |
| 2026-05-08 07:35 | 58.58100 | -4.59002 | 37863 ft | 468 kts | 277° |
| 2026-05-08 07:36 | 58.59312 | -4.71252 | 37862 ft | 467 kts | 277° |
| 2026-05-08 07:36 | 58.60514 | -4.83513 | 37861 ft | 468 kts | 277° |
| 2026-05-08 07:37 | 58.61705 | -4.95790 | 37854 ft | 468 kts | 277° |
| 2026-05-08 07:37 | 58.62884 | -5.08087 | 37867 ft | 467 kts | 277° |
| 2026-05-08 07:38 | 58.64047 | -5.20329 | 37865 ft | 465 kts | 277° |
| 2026-05-08 07:38 | 58.65196 | -5.32567 | 37864 ft | 465 kts | 277° |
| 2026-05-08 07:39 | 58.66326 | -5.44718 | 37859 ft | 465 kts | 276° |
| 2026-05-08 07:39 | 58.67451 | -5.56962 | 37854 ft | 465 kts | 276° |
| 2026-05-08 07:40 | 58.68564 | -5.69209 | 37860 ft | 466 kts | 276° |
| 2026-05-08 07:40 | 58.69672 | -5.81535 | 37850 ft | 469 kts | 276° |
| 2026-05-08 07:41 | 58.70773 | -5.93909 | 37852 ft | 470 kts | 276° |
| 2026-05-08 07:41 | 58.71862 | -6.06304 | 37859 ft | 469 kts | 276° |
| 2026-05-08 07:42 | 58.72939 | -6.18707 | 37856 ft | 469 kts | 276° |
| 2026-05-08 07:42 | 58.74003 | -6.31102 | 37862 ft | 469 kts | 276° |
| 2026-05-08 07:43 | 58.75050 | -6.43444 | 37845 ft | 470 kts | 276° |
| 2026-05-08 07:43 | 58.76094 | -6.55891 | 37844 ft | 471 kts | 276° |
| 2026-05-08 07:44 | 58.77128 | -6.68382 | 37856 ft | 472 kts | 276° |
| 2026-05-08 07:44 | 58.78150 | -6.80873 | 37852 ft | 471 kts | 276° |
| 2026-05-08 07:45 | 58.79157 | -6.93344 | 37853 ft | 469 kts | 276° |
| 2026-05-08 07:45 | 58.80150 | -7.05782 | 37849 ft | 468 kts | 275° |
| 2026-05-08 07:46 | 58.81122 | -7.18121 | 37846 ft | 468 kts | 275° |
| 2026-05-08 07:46 | 58.82089 | -7.30560 | 37864 ft | 469 kts | 275° |
| 2026-05-08 07:47 | 58.83048 | -7.43056 | 37858 ft | 470 kts | 275° |
| 2026-05-08 07:47 | 58.83996 | -7.55564 | 37863 ft | 470 kts | 275° |
| 2026-05-08 07:48 | 58.84924 | -7.67980 | 37864 ft | 470 kts | 275° |
| 2026-05-08 07:48 | 58.85844 | -7.80458 | 37862 ft | 469 kts | 275° |
| 2026-05-08 07:49 | 58.86752 | -7.92946 | 37868 ft | 469 kts | 275° |
| 2026-05-08 07:49 | 58.87649 | -8.05441 | 37868 ft | 469 kts | 275° |
| 2026-05-08 07:50 | 58.88533 | -8.17943 | 37880 ft | 469 kts | 275° |
| 2026-05-08 07:50 | 58.89406 | -8.30464 | 37874 ft | 470 kts | 275° |
| 2026-05-08 07:51 | 58.90265 | -8.42951 | 37880 ft | 468 kts | 275° |
| 2026-05-08 07:51 | 58.91106 | -8.55372 | 37881 ft | 469 kts | 275° |
| 2026-05-08 07:52 | 58.91943 | -8.67888 | 37895 ft | 468 kts | 275° |
| 2026-05-08 07:52 | 58.92763 | -8.80388 | 37899 ft | 468 kts | 275° |
| 2026-05-08 07:53 | 58.93577 | -8.92943 | 37916 ft | 469 kts | 275° |
| 2026-05-08 07:53 | 58.94375 | -9.05458 | 37902 ft | 467 kts | 275° |
| 2026-05-08 07:54 | 58.95155 | -9.17889 | 37905 ft | 469 kts | 275° |
| 2026-05-08 07:54 | 58.95930 | -9.30421 | 37909 ft | 467 kts | 274° |
| 2026-05-08 07:55 | 58.96688 | -9.42910 | 37905 ft | 468 kts | 274° |
| 2026-05-08 07:55 | 58.97439 | -9.55467 | 37921 ft | 469 kts | 274° |
| 2026-05-08 07:56 | 58.98174 | -9.67967 | 37906 ft | 464 kts | 274° |
| 2026-05-08 07:56 | 58.98897 | -9.80476 | 37921 ft | 470 kts | 274° |
| 2026-05-08 07:57 | 58.99614 | -9.93057 | 37919 ft | 467 kts | 274° |
| 2026-05-08 07:57 | 59.00767 | -10.05420 | 37932 ft | 469 kts | 282° |
| 2026-05-08 07:58 | 59.02507 | -10.17714 | 37935 ft | 474 kts | 283° |
| 2026-05-08 07:58 | 59.04218 | -10.29925 | 37955 ft | 469 kts | 282° |
| 2026-05-08 07:59 | 59.05901 | -10.42057 | 37942 ft | 465 kts | 283° |
| 2026-05-08 07:59 | 59.07584 | -10.54248 | 37961 ft | 469 kts | 283° |
| 2026-05-08 08:00 | 59.09269 | -10.66569 | 37970 ft | 470 kts | 282° |
| 2026-05-08 08:00 | 59.10936 | -10.78839 | 37971 ft | 466 kts | 282° |
| 2026-05-08 08:01 | 59.12566 | -10.90962 | 37978 ft | 467 kts | 282° |
| 2026-05-08 08:01 | 59.14209 | -11.03252 | 37970 ft | 472 kts | 283° |
| 2026-05-08 08:02 | 59.15824 | -11.15428 | 37974 ft | 467 kts | 282° |
| 2026-05-08 08:02 | 59.17429 | -11.27642 | 37974 ft | 462 kts | 282° |
| 2026-05-08 08:03 | 59.19019 | -11.39842 | 37991 ft | 465 kts | 282° |
| 2026-05-08 08:03 | 59.20616 | -11.52180 | 37993 ft | 470 kts | 282° |
| 2026-05-08 08:04 | 59.22197 | -11.64505 | 38010 ft | 464 kts | 282° |
| 2026-05-08 08:04 | 59.23738 | -11.76623 | 37998 ft | 464 kts | 282° |
| 2026-05-08 08:05 | 59.25287 | -11.88900 | 37999 ft | 468 kts | 282° |
| 2026-05-08 08:05 | 59.26840 | -12.01303 | 38020 ft | 468 kts | 282° |
| 2026-05-08 08:06 | 59.28366 | -12.13604 | 38006 ft | 461 kts | 282° |
| 2026-05-08 08:06 | 59.29870 | -12.25843 | 38018 ft | 465 kts | 282° |
| 2026-05-08 08:07 | 59.31375 | -12.38176 | 38035 ft | 470 kts | 283° |
| 2026-05-08 08:07 | 59.32885 | -12.50665 | 38048 ft | 470 kts | 283° |
| 2026-05-08 08:08 | 59.34377 | -12.63115 | 38047 ft | 470 kts | 282° |
| 2026-05-08 08:08 | 59.35865 | -12.75640 | 38055 ft | 475 kts | 282° |
| 2026-05-08 08:09 | 59.37345 | -12.88212 | 38056 ft | 471 kts | 282° |
| 2026-05-08 08:09 | 59.38795 | -13.00641 | 38047 ft | 467 kts | 282° |
| 2026-05-08 08:10 | 59.40229 | -13.13053 | 38065 ft | 472 kts | 283° |
| 2026-05-08 08:10 | 59.41675 | -13.25671 | 38071 ft | 473 kts | 282° |
| 2026-05-08 08:11 | 59.43097 | -13.38205 | 38070 ft | 466 kts | 282° |
| 2026-05-08 08:11 | 59.44502 | -13.50696 | 38064 ft | 470 kts | 282° |
| 2026-05-08 08:12 | 59.45911 | -13.63345 | 38089 ft | 474 kts | 282° |
| 2026-05-08 08:12 | 59.47290 | -13.75845 | 38089 ft | 471 kts | 283° |
| 2026-05-08 08:13 | 59.48668 | -13.88449 | 38098 ft | 472 kts | 282° |
| 2026-05-08 08:13 | 59.50043 | -14.01155 | 38102 ft | 477 kts | 282° |
| 2026-05-08 08:14 | 59.51406 | -14.13871 | 38101 ft | 470 kts | 282° |
| 2026-05-08 08:14 | 59.52735 | -14.26387 | 38110 ft | 471 kts | 282° |
| 2026-05-08 08:15 | 59.54070 | -14.39100 | 38110 ft | 476 kts | 282° |
| 2026-05-08 08:15 | 59.55173 | -14.49698 | 38116 ft | 474 kts | 283° |
| 2026-05-08 08:16 | 59.56482 | -14.62371 | 38109 ft | 470 kts | 282° |
| 2026-05-08 08:16 | 59.57782 | -14.75102 | 38125 ft | 476 kts | 282° |
| 2026-05-08 08:17 | 59.59075 | -14.87906 | 38133 ft | 474 kts | 282° |
| 2026-05-08 08:17 | 59.60349 | -15.00635 | 38131 ft | 471 kts | 282° |
| 2026-05-08 08:18 | 59.61613 | -15.13408 | 38137 ft | 478 kts | 282° |
| 2026-05-08 08:18 | 59.62868 | -15.26243 | 38135 ft | 478 kts | 283° |
| 2026-05-08 08:19 | 59.64113 | -15.39070 | 38142 ft | 474 kts | 282° |
| 2026-05-08 08:19 | 59.65346 | -15.51944 | 38143 ft | 478 kts | 282° |
| 2026-05-08 08:20 | 59.66572 | -15.64890 | 38157 ft | 478 kts | 282° |
| 2026-05-08 08:20 | 59.67776 | -15.77731 | 38151 ft | 473 kts | 282° |
| 2026-05-08 08:21 | 59.68973 | -15.90656 | 38160 ft | 479 kts | 282° |
| 2026-05-08 08:21 | 59.70165 | -16.03667 | 38185 ft | 481 kts | 282° |
| 2026-05-08 08:22 | 59.71337 | -16.16599 | 38183 ft | 479 kts | 282° |
| 2026-05-08 08:22 | 59.72502 | -16.29613 | 38180 ft | 481 kts | 282° |
| 2026-05-08 08:23 | 59.73655 | -16.42658 | 38187 ft | 480 kts | 282° |
| 2026-05-08 08:23 | 59.74799 | -16.55732 | 38180 ft | 481 kts | 282° |
| 2026-05-08 08:24 | 59.75928 | -16.68823 | 38185 ft | 482 kts | 282° |
| 2026-05-08 08:24 | 59.77040 | -16.81843 | 38184 ft | 481 kts | 282° |
| 2026-05-08 08:25 | 59.78146 | -16.94972 | 38189 ft | 482 kts | 282° |
| 2026-05-08 08:25 | 59.79239 | -17.08110 | 38196 ft | 482 kts | 282° |
| 2026-05-08 08:26 | 59.80319 | -17.21250 | 38195 ft | 482 kts | 281° |
| 2026-05-08 08:26 | 59.81385 | -17.34395 | 38183 ft | 482 kts | 281° |
| 2026-05-08 08:27 | 59.82437 | -17.47538 | 38187 ft | 482 kts | 281° |
| 2026-05-08 08:27 | 59.83476 | -17.60680 | 38184 ft | 481 kts | 281° |
| 2026-05-08 08:28 | 59.84493 | -17.73727 | 38193 ft | 481 kts | 281° |
| 2026-05-08 08:28 | 59.85508 | -17.86914 | 38191 ft | 481 kts | 281° |
| 2026-05-08 08:29 | 59.86509 | -18.00109 | 38198 ft | 482 kts | 281° |
| 2026-05-08 08:29 | 59.87495 | -18.13294 | 38202 ft | 481 kts | 281° |